sensor_id;sensor_type;location;lat;lon;timestamp;P1;durP1;ratioP1;P2;durP2;ratioP2
22973;SDS011;11653;50.848;4.584;2023-02-12T00:02:15;37.60;;;21.33;;
22973;SDS011;11653;50.848;4.584;2023-02-12T00:04:42;37.07;;;21.23;;
22973;SDS011;11653;50.848;4.584;2023-02-12T00:07:08;35.20;;;20.53;;
22973;SDS011;11653;50.848;4.584;2023-02-12T00:09:33;38.30;;;20.50;;
22973;SDS011;11653;50.848;4.584;2023-02-12T00:12:00;35.20;;;20.73;;
22973;SDS011;11653;50.848;4.584;2023-02-12T00:14:25;34.83;;;20.57;;
22973;SDS011;11653;50.848;4.584;2023-02-12T00:16:51;33.80;;;21.77;;
22973;SDS011;11653;50.848;4.584;2023-02-12T00:19:17;40.40;;;22.03;;
22973;SDS011;11653;50.848;4.584;2023-02-12T00:21:42;33.47;;;20.07;;
22973;SDS011;11653;50.848;4.584;2023-02-12T00:24:08;39.13;;;21.67;;
22973;SDS011;11653;50.848;4.584;2023-02-12T00:26:34;34.07;;;20.47;;
22973;SDS011;11653;50.848;4.584;2023-02-12T00:29:00;35.27;;;21.07;;
22973;SDS011;11653;50.848;4.584;2023-02-12T00:31:27;31.80;;;19.73;;
22973;SDS011;11653;50.848;4.584;2023-02-12T00:33:54;34.70;;;20.43;;
22973;SDS011;11653;50.848;4.584;2023-02-12T00:36:21;34.83;;;19.90;;
22973;SDS011;11653;50.848;4.584;2023-02-12T00:38:49;36.23;;;20.93;;
22973;SDS011;11653;50.848;4.584;2023-02-12T00:41:16;34.67;;;20.37;;
22973;SDS011;11653;50.848;4.584;2023-02-12T00:43:42;35.73;;;20.63;;
22973;SDS011;11653;50.848;4.584;2023-02-12T00:46:07;34.40;;;19.40;;
22973;SDS011;11653;50.848;4.584;2023-02-12T00:48:34;36.20;;;20.03;;
22973;SDS011;11653;50.848;4.584;2023-02-12T00:51:00;33.87;;;19.93;;
22973;SDS011;11653;50.848;4.584;2023-02-12T00:53:27;32.50;;;19.27;;
22973;SDS011;11653;50.848;4.584;2023-02-12T00:55:53;33.60;;;19.10;;
22973;SDS011;11653;50.848;4.584;2023-02-12T00:58:18;34.07;;;19.50;;
22973;SDS011;11653;50.848;4.584;2023-02-12T01:00:44;35.13;;;19.67;;
22973;SDS011;11653;50.848;4.584;2023-02-12T01:03:10;37.53;;;20.33;;
22973;SDS011;11653;50.848;4.584;2023-02-12T01:05:36;34.97;;;20.40;;
22973;SDS011;11653;50.848;4.584;2023-02-12T01:08:02;38.50;;;21.37;;
22973;SDS011;11653;50.848;4.584;2023-02-12T01:10:29;34.17;;;21.30;;
22973;SDS011;11653;50.848;4.584;2023-02-12T01:12:55;35.60;;;20.43;;
22973;SDS011;11653;50.848;4.584;2023-02-12T01:15:21;33.83;;;20.60;;
22973;SDS011;11653;50.848;4.584;2023-02-12T01:17:50;36.37;;;21.27;;
22973;SDS011;11653;50.848;4.584;2023-02-12T01:20:17;35.63;;;21.47;;
22973;SDS011;11653;50.848;4.584;2023-02-12T01:22:44;37.40;;;21.13;;
22973;SDS011;11653;50.848;4.584;2023-02-12T01:25:10;35.50;;;20.67;;
22973;SDS011;11653;50.848;4.584;2023-02-12T01:27:36;35.67;;;21.17;;
22973;SDS011;11653;50.848;4.584;2023-02-12T01:30:02;33.70;;;20.70;;
22973;SDS011;11653;50.848;4.584;2023-02-12T01:32:30;30.37;;;19.63;;
22973;SDS011;11653;50.848;4.584;2023-02-12T01:34:55;33.60;;;19.80;;
22973;SDS011;11653;50.848;4.584;2023-02-12T01:37:21;34.63;;;20.97;;
22973;SDS011;11653;50.848;4.584;2023-02-12T01:39:47;30.00;;;19.80;;
22973;SDS011;11653;50.848;4.584;2023-02-12T01:42:13;37.60;;;20.70;;
22973;SDS011;11653;50.848;4.584;2023-02-12T01:44:43;37.63;;;21.17;;
22973;SDS011;11653;50.848;4.584;2023-02-12T01:47:29;40.50;;;21.57;;
22973;SDS011;11653;50.848;4.584;2023-02-12T01:49:55;42.30;;;22.63;;
22973;SDS011;11653;50.848;4.584;2023-02-12T01:52:26;41.43;;;23.80;;
22973;SDS011;11653;50.848;4.584;2023-02-12T01:54:55;39.70;;;22.63;;
22973;SDS011;11653;50.848;4.584;2023-02-12T01:57:25;42.27;;;23.37;;
22973;SDS011;11653;50.848;4.584;2023-02-12T01:59:54;37.63;;;22.27;;
22973;SDS011;11653;50.848;4.584;2023-02-12T02:02:22;39.97;;;23.00;;
22973;SDS011;11653;50.848;4.584;2023-02-12T02:04:58;40.70;;;22.93;;
22973;SDS011;11653;50.848;4.584;2023-02-12T02:07:25;39.10;;;22.03;;
22973;SDS011;11653;50.848;4.584;2023-02-12T02:09:52;38.30;;;23.93;;
22973;SDS011;11653;50.848;4.584;2023-02-12T02:12:18;37.17;;;23.10;;
22973;SDS011;11653;50.848;4.584;2023-02-12T02:15:03;42.33;;;24.57;;
22973;SDS011;11653;50.848;4.584;2023-02-12T02:17:35;44.17;;;23.97;;
22973;SDS011;11653;50.848;4.584;2023-02-12T02:31:40;48.00;;;24.73;;
22973;SDS011;11653;50.848;4.584;2023-02-12T02:34:14;44.53;;;24.20;;
22973;SDS011;11653;50.848;4.584;2023-02-12T02:36:47;44.27;;;24.70;;
22973;SDS011;11653;50.848;4.584;2023-02-12T02:47:17;47.37;;;25.30;;
22973;SDS011;11653;50.848;4.584;2023-02-12T02:49:52;47.97;;;24.80;;
22973;SDS011;11653;50.848;4.584;2023-02-12T02:52:23;47.90;;;24.57;;
22973;SDS011;11653;50.848;4.584;2023-02-12T02:54:55;62.03;;;27.73;;
22973;SDS011;11653;50.848;4.584;2023-02-12T02:57:46;48.03;;;24.40;;
22973;SDS011;11653;50.848;4.584;2023-02-12T03:03:10;54.70;;;27.07;;
22973;SDS011;11653;50.848;4.584;2023-02-12T03:05:46;48.43;;;26.33;;
22973;SDS011;11653;50.848;4.584;2023-02-12T03:08:19;49.20;;;25.47;;
22973;SDS011;11653;50.848;4.584;2023-02-12T03:11:16;52.27;;;26.90;;
22973;SDS011;11653;50.848;4.584;2023-02-12T03:16:39;62.00;;;29.37;;
22973;SDS011;11653;50.848;4.584;2023-02-12T03:19:11;52.83;;;27.47;;
22973;SDS011;11653;50.848;4.584;2023-02-12T03:22:00;54.53;;;27.53;;
22973;SDS011;11653;50.848;4.584;2023-02-12T03:24:39;50.07;;;26.90;;
22973;SDS011;11653;50.848;4.584;2023-02-12T03:29:39;54.30;;;27.90;;
22973;SDS011;11653;50.848;4.584;2023-02-12T03:37:35;50.30;;;27.23;;
22973;SDS011;11653;50.848;4.584;2023-02-12T03:48:09;57.20;;;29.60;;
22973;SDS011;11653;50.848;4.584;2023-02-12T03:53:29;49.43;;;26.00;;
22973;SDS011;11653;50.848;4.584;2023-02-12T03:56:00;51.93;;;27.60;;
22973;SDS011;11653;50.848;4.584;2023-02-12T03:58:36;49.30;;;27.97;;
22973;SDS011;11653;50.848;4.584;2023-02-12T04:01:03;48.90;;;27.37;;
22973;SDS011;11653;50.848;4.584;2023-02-12T04:03:30;48.93;;;26.77;;
22973;SDS011;11653;50.848;4.584;2023-02-12T04:05:56;61.33;;;29.07;;
22973;SDS011;11653;50.848;4.584;2023-02-12T04:08:22;61.23;;;31.17;;
22973;SDS011;11653;50.848;4.584;2023-02-12T04:10:55;48.80;;;27.47;;
22973;SDS011;11653;50.848;4.584;2023-02-12T04:21:19;54.40;;;30.20;;
22973;SDS011;11653;50.848;4.584;2023-02-12T04:24:16;51.43;;;28.83;;
22973;SDS011;11653;50.848;4.584;2023-02-12T04:27:02;48.63;;;28.23;;
22973;SDS011;11653;50.848;4.584;2023-02-12T04:32:19;63.47;;;31.10;;
22973;SDS011;11653;50.848;4.584;2023-02-12T04:37:44;68.90;;;35.70;;
22973;SDS011;11653;50.848;4.584;2023-02-12T04:40:15;60.70;;;32.53;;
22973;SDS011;11653;50.848;4.584;2023-02-12T04:42:43;48.40;;;28.77;;
22973;SDS011;11653;50.848;4.584;2023-02-12T04:45:14;52.53;;;28.50;;
22973;SDS011;11653;50.848;4.584;2023-02-12T04:47:43;49.37;;;28.17;;
22973;SDS011;11653;50.848;4.584;2023-02-12T04:50:10;51.43;;;28.27;;
22973;SDS011;11653;50.848;4.584;2023-02-12T04:52:36;50.70;;;27.23;;
22973;SDS011;11653;50.848;4.584;2023-02-12T04:55:01;44.87;;;26.33;;
22973;SDS011;11653;50.848;4.584;2023-02-12T04:57:27;49.03;;;27.90;;
22973;SDS011;11653;50.848;4.584;2023-02-12T04:59:53;50.93;;;28.13;;
22973;SDS011;11653;50.848;4.584;2023-02-12T05:02:18;48.53;;;27.23;;
22973;SDS011;11653;50.848;4.584;2023-02-12T05:04:44;51.27;;;28.57;;
22973;SDS011;11653;50.848;4.584;2023-02-12T05:07:10;47.80;;;27.43;;
22973;SDS011;11653;50.848;4.584;2023-02-12T05:09:36;45.57;;;27.10;;
22973;SDS011;11653;50.848;4.584;2023-02-12T05:12:02;49.97;;;28.20;;
22973;SDS011;11653;50.848;4.584;2023-02-12T05:14:28;49.40;;;28.23;;
22973;SDS011;11653;50.848;4.584;2023-02-12T05:16:53;46.83;;;26.77;;
22973;SDS011;11653;50.848;4.584;2023-02-12T05:19:19;45.77;;;26.63;;
22973;SDS011;11653;50.848;4.584;2023-02-12T05:21:44;44.67;;;26.20;;
22973;SDS011;11653;50.848;4.584;2023-02-12T05:24:10;45.93;;;26.67;;
22973;SDS011;11653;50.848;4.584;2023-02-12T05:26:36;52.70;;;31.37;;
22973;SDS011;11653;50.848;4.584;2023-02-12T05:29:01;46.60;;;27.20;;
22973;SDS011;11653;50.848;4.584;2023-02-12T05:31:27;52.33;;;28.20;;
22973;SDS011;11653;50.848;4.584;2023-02-12T05:33:53;47.90;;;28.43;;
22973;SDS011;11653;50.848;4.584;2023-02-12T05:36:20;49.23;;;28.70;;
22973;SDS011;11653;50.848;4.584;2023-02-12T05:38:47;45.83;;;27.07;;
22973;SDS011;11653;50.848;4.584;2023-02-12T05:41:19;47.33;;;27.60;;
22973;SDS011;11653;50.848;4.584;2023-02-12T05:43:47;46.20;;;27.70;;
22973;SDS011;11653;50.848;4.584;2023-02-12T05:46:13;46.80;;;28.80;;
22973;SDS011;11653;50.848;4.584;2023-02-12T05:48:39;55.87;;;29.63;;
22973;SDS011;11653;50.848;4.584;2023-02-12T05:51:06;47.40;;;27.50;;
22973;SDS011;11653;50.848;4.584;2023-02-12T05:53:34;47.93;;;26.37;;
22973;SDS011;11653;50.848;4.584;2023-02-12T05:58:34;52.80;;;30.10;;
22973;SDS011;11653;50.848;4.584;2023-02-12T06:01:00;46.70;;;26.50;;
22973;SDS011;11653;50.848;4.584;2023-02-12T06:03:26;45.23;;;26.57;;
22973;SDS011;11653;50.848;4.584;2023-02-12T06:05:52;48.97;;;29.23;;
22973;SDS011;11653;50.848;4.584;2023-02-12T06:08:18;50.73;;;27.47;;
22973;SDS011;11653;50.848;4.584;2023-02-12T06:10:43;51.70;;;28.00;;
22973;SDS011;11653;50.848;4.584;2023-02-12T06:13:09;48.57;;;28.00;;
22973;SDS011;11653;50.848;4.584;2023-02-12T06:15:35;54.80;;;29.57;;
22973;SDS011;11653;50.848;4.584;2023-02-12T06:18:01;60.00;;;31.60;;
22973;SDS011;11653;50.848;4.584;2023-02-12T06:20:27;54.63;;;29.73;;
22973;SDS011;11653;50.848;4.584;2023-02-12T06:22:53;67.80;;;33.63;;
22973;SDS011;11653;50.848;4.584;2023-02-12T06:25:18;76.27;;;36.23;;
22973;SDS011;11653;50.848;4.584;2023-02-12T06:27:44;73.90;;;36.03;;
22973;SDS011;11653;50.848;4.584;2023-02-12T06:30:10;62.00;;;32.40;;
22973;SDS011;11653;50.848;4.584;2023-02-12T06:32:36;60.27;;;31.87;;
22973;SDS011;11653;50.848;4.584;2023-02-12T06:35:01;69.83;;;34.10;;
22973;SDS011;11653;50.848;4.584;2023-02-12T06:37:27;66.10;;;33.73;;
22973;SDS011;11653;50.848;4.584;2023-02-12T06:39:53;57.03;;;31.60;;
22973;SDS011;11653;50.848;4.584;2023-02-12T06:42:19;56.37;;;31.23;;
22973;SDS011;11653;50.848;4.584;2023-02-12T06:44:44;64.20;;;34.50;;
22973;SDS011;11653;50.848;4.584;2023-02-12T06:47:10;61.13;;;32.40;;
22973;SDS011;11653;50.848;4.584;2023-02-12T06:49:36;58.17;;;33.00;;
22973;SDS011;11653;50.848;4.584;2023-02-12T06:52:01;57.27;;;32.27;;
22973;SDS011;11653;50.848;4.584;2023-02-12T06:54:27;58.87;;;31.87;;
22973;SDS011;11653;50.848;4.584;2023-02-12T06:56:53;51.93;;;29.80;;
22973;SDS011;11653;50.848;4.584;2023-02-12T06:59:18;51.33;;;28.80;;
22973;SDS011;11653;50.848;4.584;2023-02-12T07:01:45;49.27;;;27.67;;
22973;SDS011;11653;50.848;4.584;2023-02-12T07:04:11;50.47;;;28.90;;
22973;SDS011;11653;50.848;4.584;2023-02-12T07:06:36;49.17;;;28.37;;
22973;SDS011;11653;50.848;4.584;2023-02-12T07:09:03;47.43;;;26.87;;
22973;SDS011;11653;50.848;4.584;2023-02-12T07:11:30;50.83;;;27.70;;
22973;SDS011;11653;50.848;4.584;2023-02-12T07:13:57;56.27;;;30.10;;
22973;SDS011;11653;50.848;4.584;2023-02-12T07:16:23;58.63;;;32.80;;
22973;SDS011;11653;50.848;4.584;2023-02-12T07:18:49;59.23;;;34.47;;
22973;SDS011;11653;50.848;4.584;2023-02-12T07:21:15;62.73;;;34.03;;
22973;SDS011;11653;50.848;4.584;2023-02-12T07:23:41;57.83;;;32.00;;
22973;SDS011;11653;50.848;4.584;2023-02-12T07:26:10;61.47;;;32.20;;
22973;SDS011;11653;50.848;4.584;2023-02-12T07:28:37;60.60;;;34.33;;
22973;SDS011;11653;50.848;4.584;2023-02-12T07:31:11;58.47;;;32.57;;
22973;SDS011;11653;50.848;4.584;2023-02-12T07:33:38;58.27;;;31.87;;
22973;SDS011;11653;50.848;4.584;2023-02-12T07:36:06;59.63;;;32.90;;
22973;SDS011;11653;50.848;4.584;2023-02-12T07:38:33;63.90;;;32.90;;
22973;SDS011;11653;50.848;4.584;2023-02-12T07:41:36;63.93;;;33.80;;
22973;SDS011;11653;50.848;4.584;2023-02-12T07:44:04;61.17;;;31.60;;
22973;SDS011;11653;50.848;4.584;2023-02-12T07:46:39;59.77;;;33.10;;
22973;SDS011;11653;50.848;4.584;2023-02-12T07:49:14;61.83;;;33.23;;
22973;SDS011;11653;50.848;4.584;2023-02-12T07:51:42;57.63;;;31.63;;
22973;SDS011;11653;50.848;4.584;2023-02-12T07:54:08;65.03;;;32.33;;
22973;SDS011;11653;50.848;4.584;2023-02-12T07:56:34;59.40;;;34.67;;
22973;SDS011;11653;50.848;4.584;2023-02-12T07:59:05;59.97;;;34.10;;
22973;SDS011;11653;50.848;4.584;2023-02-12T08:01:36;56.87;;;31.73;;
22973;SDS011;11653;50.848;4.584;2023-02-12T08:04:10;60.70;;;32.40;;
22973;SDS011;11653;50.848;4.584;2023-02-12T08:06:39;59.13;;;31.30;;
22973;SDS011;11653;50.848;4.584;2023-02-12T08:09:08;57.50;;;32.33;;
22973;SDS011;11653;50.848;4.584;2023-02-12T08:11:36;59.13;;;30.13;;
22973;SDS011;11653;50.848;4.584;2023-02-12T08:14:03;53.10;;;29.97;;
22973;SDS011;11653;50.848;4.584;2023-02-12T08:16:29;56.03;;;31.40;;
22973;SDS011;11653;50.848;4.584;2023-02-12T08:18:56;53.23;;;29.80;;
22973;SDS011;11653;50.848;4.584;2023-02-12T08:21:23;51.53;;;28.70;;
22973;SDS011;11653;50.848;4.584;2023-02-12T08:23:50;50.40;;;28.13;;
22973;SDS011;11653;50.848;4.584;2023-02-12T08:26:22;50.90;;;29.23;;
22973;SDS011;11653;50.848;4.584;2023-02-12T08:28:57;55.23;;;30.20;;
22973;SDS011;11653;50.848;4.584;2023-02-12T08:31:27;55.33;;;28.77;;
22973;SDS011;11653;50.848;4.584;2023-02-12T08:33:54;57.83;;;30.07;;
22973;SDS011;11653;50.848;4.584;2023-02-12T08:36:21;57.70;;;29.43;;
22973;SDS011;11653;50.848;4.584;2023-02-12T08:38:52;50.20;;;28.53;;
22973;SDS011;11653;50.848;4.584;2023-02-12T08:41:22;53.20;;;28.70;;
22973;SDS011;11653;50.848;4.584;2023-02-12T08:43:50;53.07;;;27.57;;
22973;SDS011;11653;50.848;4.584;2023-02-12T08:46:19;53.47;;;28.57;;
22973;SDS011;11653;50.848;4.584;2023-02-12T08:48:56;50.10;;;29.10;;
22973;SDS011;11653;50.848;4.584;2023-02-12T08:51:24;49.07;;;28.17;;
22973;SDS011;11653;50.848;4.584;2023-02-12T08:53:52;51.43;;;27.30;;
22973;SDS011;11653;50.848;4.584;2023-02-12T08:56:20;49.43;;;28.27;;
22973;SDS011;11653;50.848;4.584;2023-02-12T08:58:46;51.97;;;28.03;;
22973;SDS011;11653;50.848;4.584;2023-02-12T09:01:13;53.77;;;29.23;;
22973;SDS011;11653;50.848;4.584;2023-02-12T09:03:44;49.93;;;28.50;;
22973;SDS011;11653;50.848;4.584;2023-02-12T09:06:11;57.70;;;32.70;;
22973;SDS011;11653;50.848;4.584;2023-02-12T09:08:38;54.83;;;31.90;;
22973;SDS011;11653;50.848;4.584;2023-02-12T09:11:05;59.57;;;31.30;;
22973;SDS011;11653;50.848;4.584;2023-02-12T09:13:32;53.97;;;31.43;;
22973;SDS011;11653;50.848;4.584;2023-02-12T09:15:59;51.07;;;28.87;;
22973;SDS011;11653;50.848;4.584;2023-02-12T09:18:26;50.10;;;26.53;;
22973;SDS011;11653;50.848;4.584;2023-02-12T09:20:52;46.90;;;26.93;;
22973;SDS011;11653;50.848;4.584;2023-02-12T09:23:18;42.23;;;25.03;;
22973;SDS011;11653;50.848;4.584;2023-02-12T09:25:44;54.40;;;27.17;;
22973;SDS011;11653;50.848;4.584;2023-02-12T09:28:11;50.20;;;28.50;;
22973;SDS011;11653;50.848;4.584;2023-02-12T09:30:38;46.80;;;27.03;;
22973;SDS011;11653;50.848;4.584;2023-02-12T09:33:05;47.07;;;25.77;;
22973;SDS011;11653;50.848;4.584;2023-02-12T09:35:35;46.10;;;26.47;;
22973;SDS011;11653;50.848;4.584;2023-02-12T09:38:02;47.40;;;26.40;;
22973;SDS011;11653;50.848;4.584;2023-02-12T09:40:31;46.07;;;25.87;;
22973;SDS011;11653;50.848;4.584;2023-02-12T09:43:19;52.90;;;28.03;;
22973;SDS011;11653;50.848;4.584;2023-02-12T09:49:07;52.40;;;29.27;;
22973;SDS011;11653;50.848;4.584;2023-02-12T09:51:35;48.33;;;26.80;;
22973;SDS011;11653;50.848;4.584;2023-02-12T09:54:13;54.03;;;28.70;;
22973;SDS011;11653;50.848;4.584;2023-02-12T09:57:03;48.13;;;26.77;;
22973;SDS011;11653;50.848;4.584;2023-02-12T09:59:44;57.30;;;30.13;;
22973;SDS011;11653;50.848;4.584;2023-02-12T10:02:17;53.53;;;28.77;;
22973;SDS011;11653;50.848;4.584;2023-02-12T10:04:45;47.20;;;27.20;;
22973;SDS011;11653;50.848;4.584;2023-02-12T10:26:00;51.53;;;27.67;;
22973;SDS011;11653;50.848;4.584;2023-02-12T10:28:50;53.77;;;28.53;;
22973;SDS011;11653;50.848;4.584;2023-02-12T10:31:27;53.30;;;28.67;;
22973;SDS011;11653;50.848;4.584;2023-02-12T10:34:15;46.70;;;27.23;;
22973;SDS011;11653;50.848;4.584;2023-02-12T10:36:47;45.37;;;26.70;;
22973;SDS011;11653;50.848;4.584;2023-02-12T10:44:21;53.50;;;28.23;;
22973;SDS011;11653;50.848;4.584;2023-02-12T10:46:47;53.20;;;30.17;;
22973;SDS011;11653;50.848;4.584;2023-02-12T10:49:14;46.90;;;26.80;;
22973;SDS011;11653;50.848;4.584;2023-02-12T10:54:39;43.90;;;22.67;;
22973;SDS011;11653;50.848;4.584;2023-02-12T10:59:46;34.40;;;20.10;;
22973;SDS011;11653;50.848;4.584;2023-02-12T11:02:18;32.00;;;20.07;;
22973;SDS011;11653;50.848;4.584;2023-02-12T11:04:44;36.50;;;21.37;;
22973;SDS011;11653;50.848;4.584;2023-02-12T11:07:09;34.40;;;19.83;;
22973;SDS011;11653;50.848;4.584;2023-02-12T11:09:37;32.90;;;19.23;;
22973;SDS011;11653;50.848;4.584;2023-02-12T11:12:18;30.27;;;17.97;;
22973;SDS011;11653;50.848;4.584;2023-02-12T11:14:54;33.63;;;18.83;;
22973;SDS011;11653;50.848;4.584;2023-02-12T11:17:23;27.50;;;17.40;;
22973;SDS011;11653;50.848;4.584;2023-02-12T11:22:55;27.30;;;16.20;;
22973;SDS011;11653;50.848;4.584;2023-02-12T11:25:23;32.67;;;16.87;;
22973;SDS011;11653;50.848;4.584;2023-02-12T11:27:58;28.93;;;17.67;;
22973;SDS011;11653;50.848;4.584;2023-02-12T11:30:24;31.03;;;18.53;;
22973;SDS011;11653;50.848;4.584;2023-02-12T11:32:50;32.73;;;18.63;;
22973;SDS011;11653;50.848;4.584;2023-02-12T11:35:18;32.40;;;18.87;;
22973;SDS011;11653;50.848;4.584;2023-02-12T11:37:56;31.20;;;18.73;;
22973;SDS011;11653;50.848;4.584;2023-02-12T11:40:30;34.07;;;19.00;;
22973;SDS011;11653;50.848;4.584;2023-02-12T11:42:58;36.10;;;20.20;;
22973;SDS011;11653;50.848;4.584;2023-02-12T11:45:35;32.77;;;19.30;;
22973;SDS011;11653;50.848;4.584;2023-02-12T11:50:52;33.93;;;19.70;;
22973;SDS011;11653;50.848;4.584;2023-02-12T11:53:24;32.70;;;19.87;;
22973;SDS011;11653;50.848;4.584;2023-02-12T11:55:59;30.50;;;17.83;;
22973;SDS011;11653;50.848;4.584;2023-02-12T11:58:27;28.53;;;17.70;;
22973;SDS011;11653;50.848;4.584;2023-02-12T12:09:03;33.97;;;19.27;;
22973;SDS011;11653;50.848;4.584;2023-02-12T12:14:20;35.10;;;20.17;;
22973;SDS011;11653;50.848;4.584;2023-02-12T12:16:59;38.20;;;20.83;;
22973;SDS011;11653;50.848;4.584;2023-02-12T12:20:08;43.17;;;23.70;;
22973;SDS011;11653;50.848;4.584;2023-02-12T12:22:41;34.50;;;21.17;;
22973;SDS011;11653;50.848;4.584;2023-02-12T12:25:35;34.60;;;20.87;;
22973;SDS011;11653;50.848;4.584;2023-02-12T12:28:11;34.63;;;20.70;;
22973;SDS011;11653;50.848;4.584;2023-02-12T12:31:00;36.33;;;21.07;;
22973;SDS011;11653;50.848;4.584;2023-02-12T12:49:51;44.67;;;26.27;;
22973;SDS011;11653;50.848;4.584;2023-02-12T12:55:23;40.67;;;23.07;;
22973;SDS011;11653;50.848;4.584;2023-02-12T13:11:40;43.00;;;22.07;;
22973;SDS011;11653;50.848;4.584;2023-02-12T13:18:02;40.40;;;22.13;;
22973;SDS011;11653;50.848;4.584;2023-02-12T13:28:33;39.33;;;21.40;;
22973;SDS011;11653;50.848;4.584;2023-02-12T13:31:02;40.17;;;22.60;;
22973;SDS011;11653;50.848;4.584;2023-02-12T13:36:13;37.77;;;20.43;;
22973;SDS011;11653;50.848;4.584;2023-02-12T13:38:41;40.93;;;21.73;;
22973;SDS011;11653;50.848;4.584;2023-02-12T13:41:11;31.97;;;18.90;;
22973;SDS011;11653;50.848;4.584;2023-02-12T13:46:21;37.73;;;21.43;;
22973;SDS011;11653;50.848;4.584;2023-02-12T13:49:13;34.87;;;20.97;;
22973;SDS011;11653;50.848;4.584;2023-02-12T13:56:59;33.83;;;20.80;;
22973;SDS011;11653;50.848;4.584;2023-02-12T14:01:55;35.47;;;20.40;;
22973;SDS011;11653;50.848;4.584;2023-02-12T14:06:56;34.87;;;20.10;;
22973;SDS011;11653;50.848;4.584;2023-02-12T14:14:46;37.37;;;20.63;;
22973;SDS011;11653;50.848;4.584;2023-02-12T14:22:57;38.17;;;21.00;;
22973;SDS011;11653;50.848;4.584;2023-02-12T14:26:27;32.93;;;20.00;;
22973;SDS011;11653;50.848;4.584;2023-02-12T14:28:41;32.60;;;20.23;;
22973;SDS011;11653;50.848;4.584;2023-02-12T14:31:29;29.80;;;18.97;;
22973;SDS011;11653;50.848;4.584;2023-02-12T14:39:02;38.93;;;21.80;;
22973;SDS011;11653;50.848;4.584;2023-02-12T14:41:53;39.80;;;22.20;;
22973;SDS011;11653;50.848;4.584;2023-02-12T14:44:44;35.27;;;20.37;;
22973;SDS011;11653;50.848;4.584;2023-02-12T14:47:13;49.07;;;22.80;;
22973;SDS011;11653;50.848;4.584;2023-02-12T14:49:54;40.90;;;23.03;;
22973;SDS011;11653;50.848;4.584;2023-02-12T14:52:30;41.30;;;21.60;;
22973;SDS011;11653;50.848;4.584;2023-02-12T14:55:03;35.23;;;20.57;;
22973;SDS011;11653;50.848;4.584;2023-02-12T14:57:35;38.80;;;20.97;;
22973;SDS011;11653;50.848;4.584;2023-02-12T15:00:13;39.47;;;21.23;;
22973;SDS011;11653;50.848;4.584;2023-02-12T15:05:28;37.37;;;21.83;;
22973;SDS011;11653;50.848;4.584;2023-02-12T15:07:58;38.47;;;21.70;;
22973;SDS011;11653;50.848;4.584;2023-02-12T15:10:36;46.67;;;25.17;;
22973;SDS011;11653;50.848;4.584;2023-02-12T15:13:12;38.07;;;21.70;;
22973;SDS011;11653;50.848;4.584;2023-02-12T15:24:03;37.17;;;21.10;;
22973;SDS011;11653;50.848;4.584;2023-02-12T15:26:31;37.97;;;21.00;;
22973;SDS011;11653;50.848;4.584;2023-02-12T15:29:05;35.90;;;21.87;;
22973;SDS011;11653;50.848;4.584;2023-02-12T15:31:32;34.73;;;21.13;;
22973;SDS011;11653;50.848;4.584;2023-02-12T15:34:00;39.23;;;21.93;;
22973;SDS011;11653;50.848;4.584;2023-02-12T15:36:28;36.07;;;21.23;;
22973;SDS011;11653;50.848;4.584;2023-02-12T15:38:59;40.63;;;22.67;;
22973;SDS011;11653;50.848;4.584;2023-02-12T15:43:57;42.40;;;23.67;;
22973;SDS011;11653;50.848;4.584;2023-02-12T15:46:23;41.50;;;24.27;;
22973;SDS011;11653;50.848;4.584;2023-02-12T15:48:49;48.73;;;24.80;;
22973;SDS011;11653;50.848;4.584;2023-02-12T15:51:27;53.27;;;28.63;;
22973;SDS011;11653;50.848;4.584;2023-02-12T15:53:58;49.07;;;25.27;;
22973;SDS011;11653;50.848;4.584;2023-02-12T15:56:27;46.00;;;25.83;;
22973;SDS011;11653;50.848;4.584;2023-02-12T15:58:55;44.63;;;25.13;;
22973;SDS011;11653;50.848;4.584;2023-02-12T16:01:24;48.13;;;25.77;;
22973;SDS011;11653;50.848;4.584;2023-02-12T16:03:52;49.83;;;27.23;;
22973;SDS011;11653;50.848;4.584;2023-02-12T16:06:30;62.83;;;29.53;;
22973;SDS011;11653;50.848;4.584;2023-02-12T16:09:01;44.83;;;24.77;;
22973;SDS011;11653;50.848;4.584;2023-02-12T16:11:47;47.07;;;25.73;;
22973;SDS011;11653;50.848;4.584;2023-02-12T16:17:19;50.73;;;28.53;;
22973;SDS011;11653;50.848;4.584;2023-02-12T16:22:40;48.53;;;27.27;;
22973;SDS011;11653;50.848;4.584;2023-02-12T16:25:29;51.93;;;27.90;;
22973;SDS011;11653;50.848;4.584;2023-02-12T16:27:57;48.33;;;26.93;;
22973;SDS011;11653;50.848;4.584;2023-02-12T16:30:32;49.27;;;26.23;;
22973;SDS011;11653;50.848;4.584;2023-02-12T16:32:59;54.77;;;27.87;;
22973;SDS011;11653;50.848;4.584;2023-02-12T16:35:32;57.03;;;28.47;;
22973;SDS011;11653;50.848;4.584;2023-02-12T16:38:36;47.63;;;27.50;;
22973;SDS011;11653;50.848;4.584;2023-02-12T16:43:42;53.97;;;29.13;;
22973;SDS011;11653;50.848;4.584;2023-02-12T16:46:09;55.87;;;29.97;;
22973;SDS011;11653;50.848;4.584;2023-02-12T16:48:40;51.83;;;29.33;;
22973;SDS011;11653;50.848;4.584;2023-02-12T16:51:22;54.23;;;27.03;;
22973;SDS011;11653;50.848;4.584;2023-02-12T16:53:47;58.77;;;29.33;;
22973;SDS011;11653;50.848;4.584;2023-02-12T16:56:18;49.63;;;27.70;;
22973;SDS011;11653;50.848;4.584;2023-02-12T16:58:49;54.13;;;28.53;;
22973;SDS011;11653;50.848;4.584;2023-02-12T17:01:28;53.30;;;28.23;;
22973;SDS011;11653;50.848;4.584;2023-02-12T17:03:56;56.60;;;26.57;;
22973;SDS011;11653;50.848;4.584;2023-02-12T17:06:24;50.73;;;28.63;;
22973;SDS011;11653;50.848;4.584;2023-02-12T17:08:55;59.57;;;30.07;;
22973;SDS011;11653;50.848;4.584;2023-02-12T17:11:21;56.43;;;29.73;;
22973;SDS011;11653;50.848;4.584;2023-02-12T17:13:48;58.77;;;32.33;;
22973;SDS011;11653;50.848;4.584;2023-02-12T17:16:16;58.60;;;31.63;;
22973;SDS011;11653;50.848;4.584;2023-02-12T17:18:42;59.03;;;31.23;;
22973;SDS011;11653;50.848;4.584;2023-02-12T17:22:13;64.00;;;32.40;;
22973;SDS011;11653;50.848;4.584;2023-02-12T17:24:06;60.53;;;31.77;;
22973;SDS011;11653;50.848;4.584;2023-02-12T17:26:38;62.27;;;33.23;;
22973;SDS011;11653;50.848;4.584;2023-02-12T17:29:04;63.63;;;32.07;;
22973;SDS011;11653;50.848;4.584;2023-02-12T17:31:33;56.40;;;32.67;;
22973;SDS011;11653;50.848;4.584;2023-02-12T17:34:00;59.17;;;31.23;;
22973;SDS011;11653;50.848;4.584;2023-02-12T17:36:26;57.70;;;31.10;;
22973;SDS011;11653;50.848;4.584;2023-02-12T17:38:51;58.13;;;29.83;;
22973;SDS011;11653;50.848;4.584;2023-02-12T17:41:17;58.57;;;29.80;;
22973;SDS011;11653;50.848;4.584;2023-02-12T17:43:43;64.40;;;32.40;;
22973;SDS011;11653;50.848;4.584;2023-02-12T17:46:12;66.13;;;33.23;;
22973;SDS011;11653;50.848;4.584;2023-02-12T17:48:44;63.57;;;32.80;;
22973;SDS011;11653;50.848;4.584;2023-02-12T17:51:10;60.30;;;32.37;;
22973;SDS011;11653;50.848;4.584;2023-02-12T17:53:36;64.83;;;32.07;;
22973;SDS011;11653;50.848;4.584;2023-02-12T17:56:02;65.77;;;32.87;;
22973;SDS011;11653;50.848;4.584;2023-02-12T17:58:28;61.37;;;30.10;;
22973;SDS011;11653;50.848;4.584;2023-02-12T18:00:55;65.10;;;33.13;;
22973;SDS011;11653;50.848;4.584;2023-02-12T18:03:21;63.37;;;31.73;;
22973;SDS011;11653;50.848;4.584;2023-02-12T18:05:47;63.13;;;33.13;;
22973;SDS011;11653;50.848;4.584;2023-02-12T18:08:13;62.93;;;32.77;;